Terminal Aerodrome Forecast
Issued by NWS Sterling, VA

Current Version | Previous Version | Text Only | Print | Product List | Glossary Off
Versions: 1 2 3 4 5 6 7 8 9 10 11 12 13 14 15 16 17 18 19 20 21 22 23 24 25 26

000
FTUS41 KLWX 210900 AAA
TAFIAD
TAF AMD
KIAD 210906Z 2109/2212 VRB03KT P6SM BKN080
     FM211900 30004KT 6SM -SHRA BKN040
     FM220000 32004KT P6SM OVC040
     FM220700 34008KT P6SM BKN060
     FM221000 34012G20KT P6SM OVC030=

USA.gov is the U.S. government's official web portal to all federal, state and local government web resources and services.